Time;durP1;ratioP1;P1;durP2;ratioP2;P2;SDS_P1;SDS_P2;PMS_P1;PMS_P2;Temp;Humidity;BMP_temperature;BMP_pressure;BME280_temperature;BME280_humidity;BME280_pressure;Samples;Min_cycle;Max_cycle;Signal;HPM_P1;HPM_P2
2021/02/26 00:03:13;;;;;;;73;47.4;;;;;;;5.44;90.29688;99834.91;;;;
2021/02/26 00:13:11;;;;;;;74.6;40.2;;;;;;;5.23;92.39355;99819.59;;;;
2021/02/26 00:23:09;;;;;;;62.2;43.3;;;;;;;5.63;96.21582;99815.92;;;;
2021/02/26 00:33:07;;;;;;;68.3;43.3;;;;;;;5.61;94.89453;99816.19;;;;
2021/02/26 00:43:06;;;;;;;56.2;42.3;;;;;;;5.45;95.0498;99817.8;;;;
2021/02/26 00:53:04;;;;;;;61.1;40.7;;;;;;;5.33;95.87402;99801.05;;;;
2021/02/26 01:03:02;;;;;;;65.9;45.4;;;;;;;5.32;96.46094;99788.73;;;;
2021/02/26 01:13:00;;;;;;;82.8;50.3;;;;;;;5.61;97.40039;99781.42;;;;
2021/02/26 01:22:58;;;;;;;74.1;48.5;;;;;;;5.45;97.69922;99783.05;;;;
2021/02/26 01:32:57;;;;;;;64.8;50.6;;;;;;;5.39;97.84863;99773.34;;;;
2021/02/26 01:42:57;;;;;;;73.3;48.5;;;;;;;5.4;98.50684;99774.97;;;;
2021/02/26 01:52:53;;;;;;;75.2;50.3;;;;;;;5.65;98.54785;99760.34;;;;
2021/02/26 02:02:51;;;;;;;66.3;46.6;;;;;;;5.46;96.7793;99781.19;;;;
2021/02/26 02:12:49;;;;;;;73.4;54;;;;;;;5.21;97.28809;99768.23;;;;
2021/02/26 02:22:47;;;;;;;66.1;47.8;;;;;;;5.3;98.73633;99771.33;;;;
2021/02/26 02:32:45;;;;;;;82.1;47.5;;;;;;;5.3;99.97656;99774;;;;
2021/02/26 02:42:44;;;;;;;69.1;50.6;;;;;;;5.52;98.96484;99778.34;;;;
2021/02/26 02:52:42;;;;;;;61.8;46;;;;;;;5.47;99.1875;99775.61;;;;
2021/02/26 03:02:40;;;;;;;68.7;46.8;;;;;;;5.42;98.77441;99769.36;;;;
2021/02/26 03:12:41;;;;;;;68.6;42;;;;;;;5.51;98.66406;99759.88;;;;
2021/02/26 03:22:36;;;;;;;61.2;42.2;;;;;;;5.48;98.63379;99755.03;;;;
2021/02/26 03:32:35;;;;;;;54.6;37.2;;;;;;;5.54;99.20117;99741.48;;;;
2021/02/26 03:42:36;;;;;;;68.4;38.7;;;;;;;5.71;98.05273;99756.67;;;;
2021/02/26 03:52:31;;;;;;;62.8;37.8;;;;;;;5.3;95.47949;99749.94;;;;
2021/02/26 04:02:29;;;;;;;48.8;35.8;;;;;;;4.69;94.18359;99748.94;;;;
2021/02/26 04:12:27;;;;;;;48.8;30.6;;;;;;;4.39;96.84961;99743.88;;;;
2021/02/26 04:22:25;;;;;;;46.7;27.4;;;;;;;4.41;98.85352;99741.77;;;;
2021/02/26 04:32:24;;;;;;;44.5;27.4;;;;;;;4.31;99.05176;99740.77;;;;
2021/02/26 04:42:22;;;;;;;39.1;26.3;;;;;;;4.22;99.80469;99734.2;;;;
2021/02/26 04:52:20;;;;;;;38.3;28.1;;;;;;;4.27;100;99715.63;;;;
2021/02/26 05:02:18;;;;;;;39.2;27.4;;;;;;;4.18;99.3877;99707.19;;;;
2021/02/26 05:12:16;;;;;;;31.2;24.6;;;;;;;4.24;100;99689.39;;;;
2021/02/26 05:22:14;;;;;;;36.6;22.6;;;;;;;4.22;99.15332;99715.52;;;;
2021/02/26 05:32:12;;;;;;;62.1;52.3;;;;;;;3.44;92.4541;99724.05;;;;
2021/02/26 05:42:10;;;;;;;66.4;42;;;;;;;2.57;92.47559;99716.94;;;;
2021/02/26 05:52:08;;;;;;;61.7;43.2;;;;;;;2.48;94.20996;99727.9;;;;
2021/02/26 06:02:06;;;;;;;43.6;33.4;;;;;;;2.25;95.50195;99717.19;;;;
2021/02/26 06:12:04;;;;;;;42.8;27.9;;;;;;;2.68;100;99721.45;;;;
2021/02/26 06:22:01;;;;;;;34.3;25.3;;;;;;;3.09;100;99720.61;;;;
2021/02/26 06:31:59;;;;;;;45.3;26.4;;;;;;;3.32;100;99728.59;;;;
2021/02/26 06:41:57;;;;;;;48.4;29.8;;;;;;;3.74;100;99714.06;;;;
2021/02/26 06:51:55;;;;;;;48.8;32.2;;;;;;;4.54;100;99708.64;;;;
2021/02/26 07:01:53;;;;;;;69.4;46.7;;;;;;;4.95;100;99689.56;;;;
2021/02/26 07:11:51;;;;;;;64.4;51.5;;;;;;;5.12;95.28516;99700.23;;;;
2021/02/26 07:21:50;;;;;;;56.1;41.3;;;;;;;5.57;94.88477;99692.05;;;;
2021/02/26 07:31:53;;;;;;;62.4;38.5;;;;;;;6.31;94.625;99685.19;;;;
2021/02/26 07:41:49;;;;;;;62.5;38.3;;;;;;;6.93;92.85547;99687.34;;;;
2021/02/26 07:51:50;;;;;;;69.8;46.7;;;;;;;7.39;88.53809;99683.09;;;;
2021/02/26 08:01:46;;;;;;;71.1;44.8;;;;;;;7.76;86.37793;99680.31;;;;
2021/02/26 08:11:59;;;;;;;67.3;41.8;;;;;;;8.03;84.58691;99664.84;;;;
2021/02/26 08:21:43;;;;;;;56.7;47.5;;;;;;;8.31;83.65527;99667.09;;;;
2021/02/26 08:31:39;;;;;;;76.9;45.9;;;;;;;8.8;82.83984;99653.15;;;;
2021/02/26 08:41:37;;;;;;;60.5;42.6;;;;;;;9.35;80.76563;99660.33;;;;
2021/02/26 08:51:36;;;;;;;48.6;42.5;;;;;;;9.83;78.52539;99640.77;;;;
2021/02/26 09:01:36;;;;;;;59.5;48.9;;;;;;;10.26;77.30566;99638.42;;;;
2021/02/26 09:11:33;;;;;;;81.2;52.4;;;;;;;10.66;75.62793;99635.42;;;;
2021/02/26 09:21:32;;;;;;;72.7;50.3;;;;;;;10.99;75.21191;99623.81;;;;
2021/02/26 09:31:34;;;;;;;64.6;40.7;;;;;;;11.55;73.17969;99618.62;;;;
2021/02/26 09:41:29;;;;;;;56.7;36;;;;;;;12.1;71.15039;99613.59;;;;
2021/02/26 09:51:28;;;;;;;50.6;36.6;;;;;;;12.61;69.79004;99608.2;;;;
2021/02/26 10:01:27;;;;;;;45.7;34;;;;;;;13.02;66.89844;99594.77;;;;
2021/02/26 10:11:26;;;;;;;37.7;27.5;;;;;;;13.55;64.42676;99598.65;;;;
2021/02/26 10:21:25;;;;;;;40.1;28;;;;;;;13.86;60.36035;99579.84;;;;
2021/02/26 10:31:25;;;;;;;34.3;24.2;;;;;;;14.33;60.44824;99564.95;;;;
2021/02/26 10:41:24;;;;;;;45.6;24.1;;;;;;;14.67;57.11719;99539.97;;;;
2021/02/26 10:51:23;;;;;;;31.6;19.9;;;;;;;15.11;56.10742;99522.77;;;;
2021/02/26 11:01:23;;;;;;;35.6;22.7;;;;;;;15.41;54.94043;99499.38;;;;
2021/02/26 11:11:22;;;;;;;31.3;21;;;;;;;15.68;55.53711;99485.53;;;;
2021/02/26 11:21:22;;;;;;;25.9;17.8;;;;;;;15.87;53.65234;99488.73;;;;
2021/02/26 11:31:21;;;;;;;30.7;17;;;;;;;16.12;52.08301;99462.64;;;;
2021/02/26 11:41:21;;;;;;;32.9;18.3;;;;;;;16.5;54.23633;99455.35;;;;
2021/02/26 11:51:20;;;;;;;27.2;17.4;;;;;;;16.65;52.45605;99437.73;;;;
2021/02/26 12:01:20;;;;;;;42.9;21.1;;;;;;;16.91;51.95605;99421.25;;;;
2021/02/26 12:11:19;;;;;;;33.8;20.1;;;;;;;16.98;50.98438;99402.47;;;;
2021/02/26 12:21:19;;;;;;;37.8;22.6;;;;;;;17.15;51.61523;99386.02;;;;
2021/02/26 12:31:19;;;;;;;39.3;21.4;;;;;;;17.07;51.05273;99368.63;;;;
2021/02/26 12:41:18;;;;;;;37.8;24;;;;;;;17.01;51.96875;99363.68;;;;
2021/02/26 12:51:18;;;;;;;35.1;21.8;;;;;;;17.05;52.2959;99361.9;;;;
2021/02/26 13:01:18;;;;;;;44.9;18.8;;;;;;;17.16;51.09766;99344.04;;;;
2021/02/26 13:11:17;;;;;;;42.2;13.8;;;;;;;17.26;43.72363;99335.47;;;;
2021/02/26 13:21:17;;;;;;;34.4;12.7;;;;;;;17.32;44.80566;99323.22;;;;
2021/02/26 13:31:17;;;;;;;27.3;11.4;;;;;;;17.32;44.80566;99317.77;;;;
2021/02/26 13:41:16;;;;;;;33.4;12;;;;;;;17.38;44.33691;99321.91;;;;
2021/02/26 13:51:16;;;;;;;27.8;12;;;;;;;17.26;46.29004;99326.48;;;;
2021/02/26 14:01:16;;;;;;;21.1;13.4;;;;;;;17.27;47.05469;99311.75;;;;
2021/02/26 14:11:18;;;;;;;27.1;11.4;;;;;;;16.96;48.23438;99318.41;;;;
2021/02/26 14:21:15;;;;;;;21.8;11.2;;;;;;;16.72;49.30469;99310.08;;;;
2021/02/26 14:31:15;;;;;;;35.2;13.9;;;;;;;16.4;49.96191;99311.5;;;;
2021/02/26 14:41:14;;;;;;;28.4;16.3;;;;;;;16.18;51.04199;99298.16;;;;
2021/02/26 14:51:14;;;;;;;40.7;14.7;;;;;;;16.02;51.58789;99300.63;;;;
2021/02/26 15:01:13;;;;;;;33.3;16.6;;;;;;;15.79;53.08984;99301.97;;;;
2021/02/26 15:11:13;;;;;;;30.2;15.4;;;;;;;15.46;54.1416;99303.61;;;;
2021/02/26 15:21:12;;;;;;;36.5;14.8;;;;;;;15.19;55.07227;99293.09;;;;
2021/02/26 15:31:12;;;;;;;29.5;17;;;;;;;14.95;55.27246;99293.58;;;;
2021/02/26 15:41:11;;;;;;;60.4;18.1;;;;;;;14.83;55.55566;99302.34;;;;
2021/02/26 15:51:10;;;;;;;31.9;17.1;;;;;;;14.61;56.46777;99313.34;;;;
2021/02/26 16:01:10;;;;;;;34.9;17.7;;;;;;;14.14;58.44434;99323.02;;;;
2021/02/26 16:11:09;;;;;;;48.4;17.3;;;;;;;13.79;59.7002;99319.34;;;;
2021/02/26 16:21:08;;;;;;;41;20.5;;;;;;;13.48;61.07422;99332.86;;;;
2021/02/26 16:31:07;;;;;;;42.5;21.8;;;;;;;13.3;61.76758;99333.83;;;;
2021/02/26 16:41:06;;;;;;;33;21.5;;;;;;;13.21;62.16406;99348.41;;;;
2021/02/26 16:51:05;;;;;;;48.7;25.3;;;;;;;13.05;62.40527;99359.53;;;;
2021/02/26 17:01:04;;;;;;;71.8;26.6;;;;;;;12.79;63.03906;99373.92;;;;
2021/02/26 17:11:03;;;;;;;37.1;26.2;;;;;;;12.6;63.2627;99392.95;;;;
2021/02/26 17:21:03;;;;;;;35.9;20.5;;;;;;;12.55;63.04004;99404.69;;;;
2021/02/26 17:31:02;;;;;;;45.2;21.1;;;;;;;12.5;63.89551;99420.19;;;;
2021/02/26 17:41:01;;;;;;;35.8;20.5;;;;;;;12.22;65.69824;99435.58;;;;
2021/02/26 17:51:00;;;;;;;45;32;;;;;;;11.75;70.77637;99458.25;;;;
2021/02/26 18:00:58;;;;;;;48.9;29.7;;;;;;;11.16;76.78809;99476.86;;;;
2021/02/26 18:10:57;;;;;;;36.6;28;;;;;;;10.64;78.8291;99489.33;;;;
2021/02/26 18:20:56;;;;;;;36.6;24.1;;;;;;;10.18;80.08789;99497.03;;;;
2021/02/26 18:30:55;;;;;;;31.5;25.1;;;;;;;9.91;80.94824;99496.69;;;;
2021/02/26 18:40:55;;;;;;;53.5;34.6;;;;;;;9.53;82.85742;99517.93;;;;
2021/02/26 18:50:52;;;;;;;19.2;14.2;;;;;;;8.61;81.58203;99566.11;;;;
2021/02/26 19:00:50;;;;;;;21.2;10.9;;;;;;;7.79;81.18262;99583.99;;;;
2021/02/26 19:10:49;;;;;;;8.9;5.9;;;;;;;7.22;79.99219;99615.43;;;;
2021/02/26 19:20:47;;;;;;;13.5;7.7;;;;;;;6.57;80.44238;99606.69;;;;
2021/02/26 19:30:45;;;;;;;10.6;6.5;;;;;;;5.89;85.92969;99625.33;;;;
2021/02/26 19:40:44;;;;;;;11.4;6.9;;;;;;;5.47;91.33691;99641.93;;;;
2021/02/26 19:50:42;;;;;;;10.9;8.1;;;;;;;5.3;94.09473;99664.41;;;;
2021/02/26 20:00:40;;;;;;;13.6;9;;;;;;;5.13;95.54199;99707.2;;;;
2021/02/26 20:10:39;;;;;;;12.3;9.3;;;;;;;5.1;96;99717.58;;;;
2021/02/26 20:20:38;;;;;;;13.4;10;;;;;;;5.03;95.41211;99729.2;;;;
2021/02/26 20:30:34;;;;;;;12.3;9.3;;;;;;;4.92;95.84961;99761.36;;;;
2021/02/26 20:40:32;;;;;;;7.5;4.6;;;;;;;4.51;98.15918;99791.88;;;;
2021/02/26 20:50:30;;;;;;;5.8;3.9;;;;;;;4;99.04883;99798.86;;;;
2021/02/26 21:00:28;;;;;;;9.1;3.3;;;;;;;3.89;99.2207;99799.69;;;;
2021/02/26 21:10:25;;;;;;;5.2;2.3;;;;;;;3.83;100;99813.14;;;;
2021/02/26 21:20:23;;;;;;;5.4;3.6;;;;;;;3.68;100;99829.61;;;;
2021/02/26 21:30:21;;;;;;;5.6;3.4;;;;;;;3.51;100;99844.66;;;;
2021/02/26 21:40:19;;;;;;;17.9;5.9;;;;;;;3.27;100;99843.02;;;;
2021/02/26 21:50:17;;;;;;;6.8;4.7;;;;;;;2.8;100;99855.41;;;;
2021/02/26 22:00:15;;;;;;;9.9;6.2;;;;;;;2.45;100;99871.2;;;;
2021/02/26 22:10:12;;;;;;;10.2;5.3;;;;;;;2.21;100;99862.28;;;;
2021/02/26 22:20:10;;;;;;;5.5;2.7;;;;;;;2.05;100;99838.13;;;;
2021/02/26 22:30:08;;;;;;;7.7;4.3;;;;;;;2.11;100;99850.53;;;;
2021/02/26 22:40:06;;;;;;;7.9;3.9;;;;;;;2.06;100;99853.03;;;;
2021/02/26 22:50:03;;;;;;;6.6;3.2;;;;;;;2.07;100;99852.83;;;;
2021/02/26 23:00:01;;;;;;;8.8;4.9;;;;;;;2.02;100;99842.84;;;;
2021/02/26 23:09:59;;;;;;;8.4;4.4;;;;;;;1.95;100;99847.42;;;;
2021/02/26 23:19:56;;;;;;;4.7;2.8;;;;;;;2.01;100;99840.42;;;;
2021/02/26 23:29:54;;;;;;;8.2;3.5;;;;;;;1.94;100;99840.47;;;;
2021/02/26 23:39:52;;;;;;;6.5;4.1;;;;;;;2.05;100;99830.16;;;;
2021/02/26 23:49:49;;;;;;;12.3;7.2;;;;;;;2.2;100;99834.05;;;;
2021/02/26 23:59:47;;;;;;;10.1;8.2;;;;;;;2.37;100;99847.55;;;;
